Time;durP1;ratioP1;P1;durP2;ratioP2;P2;SDS_P1;SDS_P2;PMS_P1;PMS_P2;Temp;Humidity;BMP_temperature;BMP_pressure;BME280_temperature;BME280_humidity;BME280_pressure;Samples;Min_cycle;Max_cycle;Signal;HPM_P1;HPM_P2
2021/01/24 00:00:50;;;;;;;8.38;2.75;;;;;;;;;;4847903;29;20499;-72
2021/01/24 00:03:19;;;;;;;7.25;3.10;;;;;;;;;;4851676;29;20060;-73
2021/01/24 00:05:45;;;;;;;6.38;2.42;;;;;;;;;;4850688;29;20049;-72
2021/01/24 00:08:12;;;;;;;7.60;2.47;;;;;;;;;;4848100;29;20157;-71
2021/01/24 00:10:39;;;;;;;8.38;2.20;;;;;;;;;;4846397;29;20053;-71
2021/01/24 00:13:05;;;;;;;7.45;2.45;;;;;;;;;;4836507;29;20057;-75
2021/01/24 00:15:31;;;;;;;6.63;2.55;;;;;;;;;;4838610;29;20057;-73
2021/01/24 00:17:57;;;;;;;10.80;2.65;;;;;;;;;;4861682;29;20501;-73
2021/01/24 00:20:23;;;;;;;9.95;3.42;;;;;;;;;;4854322;29;20522;-73
2021/01/24 00:22:49;;;;;;;5.53;2.30;;;;;;;;;;4837787;29;20052;-73
2021/01/24 00:25:17;;;;;;;6.32;2.40;;;;;;;;;;4844204;29;20054;-73
2021/01/24 00:27:43;;;;;;;5.53;2.05;;;;;;;;;;4852079;29;20053;-74
2021/01/24 00:30:10;;;;;;;6.30;1.90;;;;;;;;;;4847517;29;20053;-73
2021/01/24 00:32:36;;;;;;;4.88;2.00;;;;;;;;;;4847756;29;20532;-72
2021/01/24 00:35:03;;;;;;;8.52;2.75;;;;;;;;;;4844579;29;20046;-73
2021/01/24 00:37:30;;;;;;;9.00;1.98;;;;;;;;;;4853032;29;20494;-73
2021/01/24 00:39:56;;;;;;;5.20;1.88;;;;;;;;;;4832075;29;20086;-73
2021/01/24 00:42:22;;;;;;;5.80;1.92;;;;;;;;;;4847447;29;20048;-73
2021/01/24 00:44:48;;;;;;;7.00;1.63;;;;;;;;;;4849709;29;20050;-72
2021/01/24 00:47:15;;;;;;;6.10;1.90;;;;;;;;;;4849181;29;20510;-72
2021/01/24 00:49:41;;;;;;;6.07;2.28;;;;;;;;;;4853522;29;20480;-73
2021/01/24 00:52:07;;;;;;;7.80;2.55;;;;;;;;;;4846610;29;20488;-73
2021/01/24 00:54:33;;;;;;;6.15;2.30;;;;;;;;;;4847022;29;20062;-72
2021/01/24 00:56:59;;;;;;;5.93;1.83;;;;;;;;;;4844487;29;20052;-72
2021/01/24 00:59:25;;;;;;;7.00;2.58;;;;;;;;;;4850010;29;20062;-72
2021/01/24 01:01:51;;;;;;;5.20;1.92;;;;;;;;;;4845029;29;20056;-72
2021/01/24 01:04:18;;;;;;;4.68;2.10;;;;;;;;;;4849554;29;20045;-72
2021/01/24 01:06:44;;;;;;;5.18;1.83;;;;;;;;;;4838938;29;20057;-73
2021/01/24 01:09:10;;;;;;;4.20;1.92;;;;;;;;;;4847779;29;20528;-72
2021/01/24 01:11:36;;;;;;;4.90;1.88;;;;;;;;;;4849825;29;20053;-73
2021/01/24 01:14:02;;;;;;;5.80;2.03;;;;;;;;;;4853728;29;20072;-73
2021/01/24 01:16:29;;;;;;;4.53;1.88;;;;;;;;;;4849513;29;20054;-72
2021/01/24 01:18:55;;;;;;;4.82;1.98;;;;;;;;;;4855009;29;20054;-73
2021/01/24 01:21:21;;;;;;;3.70;1.88;;;;;;;;;;4849328;29;20042;-73
2021/01/24 01:23:48;;;;;;;7.25;1.55;;;;;;;;;;4849901;29;20058;-72
2021/01/24 01:26:14;;;;;;;5.43;1.92;;;;;;;;;;4842874;29;20129;-72
2021/01/24 01:28:40;;;;;;;4.45;2.00;;;;;;;;;;4848670;29;20049;-73
2021/01/24 01:31:06;;;;;;;5.68;2.05;;;;;;;;;;4851665;29;20041;-72
2021/01/24 01:33:32;;;;;;;3.28;1.50;;;;;;;;;;4838158;29;20054;-72
2021/01/24 01:35:59;;;;;;;3.80;1.65;;;;;;;;;;4848841;29;20058;-72
2021/01/24 01:38:25;;;;;;;3.90;1.40;;;;;;;;;;4839037;29;20054;-73
2021/01/24 01:40:52;;;;;;;4.28;1.60;;;;;;;;;;4851158;29;20061;-72
2021/01/24 01:43:18;;;;;;;5.53;1.80;;;;;;;;;;4849612;29;20053;-72
2021/01/24 01:45:44;;;;;;;3.45;1.73;;;;;;;;;;4845099;29;20140;-73
2021/01/24 01:48:10;;;;;;;4.45;1.92;;;;;;;;;;4855249;29;22514;-72
2021/01/24 01:50:36;;;;;;;4.70;2.30;;;;;;;;;;4849895;29;20049;-73
2021/01/24 01:53:03;;;;;;;4.20;1.50;;;;;;;;;;4851609;29;20046;-73
2021/01/24 01:55:29;;;;;;;4.20;1.77;;;;;;;;;;4850918;29;20053;-72
2021/01/24 01:57:56;;;;;;;4.97;1.50;;;;;;;;;;4845100;29;20505;-72
2021/01/24 02:00:22;;;;;;;5.18;1.63;;;;;;;;;;4850281;29;20061;-73
2021/01/24 02:03:03;;;;;;;3.50;1.52;;;;;;;;;;4848053;29;20054;-73
2021/01/24 02:05:29;;;;;;;4.35;1.38;;;;;;;;;;4845793;29;20049;-72
2021/01/24 02:08:03;;;;;;;3.38;1.30;;;;;;;;;;4849504;29;20206;-73
2021/01/24 02:10:37;;;;;;;4.47;1.45;;;;;;;;;;4843500;29;20045;-73
2021/01/24 02:13:06;;;;;;;3.15;1.88;;;;;;;;;;4843143;29;20049;-75
2021/01/24 02:15:33;;;;;;;3.87;1.50;;;;;;;;;;4848253;29;20057;-74
2021/01/24 02:18:04;;;;;;;4.72;1.75;;;;;;;;;;4849230;29;20337;-74
2021/01/24 02:20:48;;;;;;;3.40;1.42;;;;;;;;;;4845009;29;20050;-74
2021/01/24 02:23:20;;;;;;;4.78;1.60;;;;;;;;;;4846126;29;20136;-75
2021/01/24 02:25:50;;;;;;;5.80;1.57;;;;;;;;;;4856218;29;20064;-73
2021/01/24 02:28:24;;;;;;;3.92;1.30;;;;;;;;;;4852860;29;20300;-73
2021/01/24 02:30:56;;;;;;;3.03;1.20;;;;;;;;;;4844512;29;20159;-72
2021/01/24 02:33:23;;;;;;;5.78;1.92;;;;;;;;;;4849949;29;20045;-73
2021/01/24 02:35:51;;;;;;;5.05;1.85;;;;;;;;;;4851581;29;20061;-74
2021/01/24 02:38:18;;;;;;;4.60;1.73;;;;;;;;;;4846827;29;20052;-74
2021/01/24 02:40:45;;;;;;;4.28;1.77;;;;;;;;;;4838524;29;20065;-75
2021/01/24 02:43:12;;;;;;;5.97;1.80;;;;;;;;;;4849617;29;20046;-73
2021/01/24 02:45:48;;;;;;;4.15;1.52;;;;;;;;;;4846033;29;20536;-74
2021/01/24 02:48:16;;;;;;;5.20;1.85;;;;;;;;;;4846469;29;21398;-74
2021/01/24 02:50:43;;;;;;;4.18;1.67;;;;;;;;;;4843664;29;20049;-74
2021/01/24 02:53:09;;;;;;;3.55;1.88;;;;;;;;;;4850032;29;20117;-74
2021/01/24 02:55:36;;;;;;;6.10;2.10;;;;;;;;;;4847111;29;20057;-73
2021/01/24 02:58:02;;;;;;;3.60;1.83;;;;;;;;;;4845172;29;20068;-74
2021/01/24 03:00:29;;;;;;;5.38;1.73;;;;;;;;;;4827438;29;20071;-74
2021/01/24 03:02:55;;;;;;;3.20;1.50;;;;;;;;;;4835791;29;20053;-74
2021/01/24 03:05:23;;;;;;;3.58;1.23;;;;;;;;;;4845288;29;20077;-74
2021/01/24 03:07:50;;;;;;;2.92;1.48;;;;;;;;;;4848629;29;20054;-74
2021/01/24 03:10:17;;;;;;;4.35;1.63;;;;;;;;;;4845494;29;20061;-74
2021/01/24 03:12:58;;;;;;;4.18;1.45;;;;;;;;;;4846392;29;20049;-74
2021/01/24 03:15:24;;;;;;;3.50;1.48;;;;;;;;;;4851557;29;20050;-74
2021/01/24 03:17:50;;;;;;;6.55;1.90;;;;;;;;;;4848795;29;21974;-75
2021/01/24 03:20:18;;;;;;;3.67;1.10;;;;;;;;;;4849171;29;20050;-76
2021/01/24 03:22:46;;;;;;;4.30;1.42;;;;;;;;;;4851253;29;20058;-75
2021/01/24 03:25:13;;;;;;;4.78;1.52;;;;;;;;;;4846583;29;20056;-75
2021/01/24 03:27:39;;;;;;;3.08;1.20;;;;;;;;;;4850605;29;20049;-75
2021/01/24 03:30:06;;;;;;;2.78;1.63;;;;;;;;;;4835837;29;20064;-75
2021/01/24 03:32:32;;;;;;;3.35;1.42;;;;;;;;;;4850682;29;20418;-75
2021/01/24 03:34:58;;;;;;;5.13;1.45;;;;;;;;;;4838348;29;20661;-75
2021/01/24 03:37:25;;;;;;;3.88;1.63;;;;;;;;;;4851266;29;20136;-74
2021/01/24 03:39:51;;;;;;;4.35;1.90;;;;;;;;;;4846755;29;20057;-74
2021/01/24 03:42:17;;;;;;;1.95;1.20;;;;;;;;;;4845248;29;20046;-75
2021/01/24 03:44:43;;;;;;;4.45;1.90;;;;;;;;;;4849741;29;20496;-75
2021/01/24 03:47:11;;;;;;;3.55;1.35;;;;;;;;;;4847785;29;20049;-75
2021/01/24 03:49:39;;;;;;;5.43;1.52;;;;;;;;;;4852295;29;20140;-73
2021/01/24 03:52:05;;;;;;;4.00;1.30;;;;;;;;;;4845522;29;20052;-72
2021/01/24 03:54:31;;;;;;;2.60;1.20;;;;;;;;;;4844378;29;20076;-74
2021/01/24 03:56:59;;;;;;;2.28;1.10;;;;;;;;;;4840224;29;20053;-75
2021/01/24 03:59:25;;;;;;;4.68;1.83;;;;;;;;;;4841668;29;20132;-74
2021/01/24 04:01:51;;;;;;;4.15;1.38;;;;;;;;;;4850340;29;20609;-74
2021/01/24 04:04:17;;;;;;;4.18;1.58;;;;;;;;;;4850258;29;20057;-74
2021/01/24 04:06:44;;;;;;;3.22;1.17;;;;;;;;;;4850287;29;20050;-74
2021/01/24 04:09:10;;;;;;;2.67;1.20;;;;;;;;;;4851363;29;20052;-74
2021/01/24 04:11:37;;;;;;;4.57;1.30;;;;;;;;;;4848422;29;20089;-74
2021/01/24 04:14:04;;;;;;;2.75;1.13;;;;;;;;;;4849893;29;20060;-74
2021/01/24 04:16:30;;;;;;;4.13;1.33;;;;;;;;;;4850212;29;20049;-74
2021/01/24 04:18:56;;;;;;;2.72;1.15;;;;;;;;;;4853792;29;20054;-75
2021/01/24 04:21:22;;;;;;;3.30;1.40;;;;;;;;;;4849656;29;20053;-75
2021/01/24 04:23:49;;;;;;;1.80;0.85;;;;;;;;;;4841357;29;20077;-74
2021/01/24 04:26:15;;;;;;;2.92;1.65;;;;;;;;;;4853078;29;20054;-75
2021/01/24 04:28:41;;;;;;;5.57;2.10;;;;;;;;;;4851036;29;20140;-75
2021/01/24 04:31:07;;;;;;;3.30;1.20;;;;;;;;;;4853338;29;20049;-73
2021/01/24 04:33:34;;;;;;;2.33;0.98;;;;;;;;;;4855242;29;20046;-74
2021/01/24 04:36:00;;;;;;;2.78;1.30;;;;;;;;;;4847775;29;20050;-74
2021/01/24 04:38:27;;;;;;;3.85;1.10;;;;;;;;;;4847371;29;20411;-74
2021/01/24 04:40:53;;;;;;;4.40;1.45;;;;;;;;;;4847548;29;20049;-75
2021/01/24 04:43:19;;;;;;;3.45;1.38;;;;;;;;;;4847755;29;20046;-74
2021/01/24 04:45:46;;;;;;;3.10;1.38;;;;;;;;;;4851057;29;20064;-74
2021/01/24 04:48:12;;;;;;;1.83;0.85;;;;;;;;;;4847627;29;20514;-74
2021/01/24 04:53:31;;;;;;;3.38;1.40;;;;;;;;;;4777469;29;20063;-73
2021/01/24 04:55:57;;;;;;;4.38;1.10;;;;;;;;;;4778667;29;20059;-73
2021/01/24 04:58:24;;;;;;;4.43;1.33;;;;;;;;;;4780183;29;20421;-72
2021/01/24 05:00:50;;;;;;;2.28;1.20;;;;;;;;;;4776798;29;20051;-72
2021/01/24 05:03:16;;;;;;;2.28;1.30;;;;;;;;;;4781592;29;20047;-73
2021/01/24 05:05:42;;;;;;;3.13;1.52;;;;;;;;;;4775918;29;20051;-72
2021/01/24 05:08:09;;;;;;;3.95;1.60;;;;;;;;;;4772857;29;20242;-72
2021/01/24 05:10:35;;;;;;;4.47;1.27;;;;;;;;;;4764907;29;20059;-72
2021/01/24 05:13:01;;;;;;;4.25;1.20;;;;;;;;;;4800002;29;20051;-71
2021/01/24 05:15:28;;;;;;;3.20;1.38;;;;;;;;;;4779246;29;20597;-71
2021/01/24 05:18:01;;;;;;;2.28;0.93;;;;;;;;;;4769642;30;20055;-71
2021/01/24 05:20:29;;;;;;;3.20;1.40;;;;;;;;;;4776951;29;20146;-73
2021/01/24 05:22:55;;;;;;;3.58;1.35;;;;;;;;;;4781451;29;20061;-73
2021/01/24 05:25:23;;;;;;;2.00;1.05;;;;;;;;;;4786691;29;20067;-74
2021/01/24 05:27:49;;;;;;;2.58;1.10;;;;;;;;;;4780053;29;20055;-74
2021/01/24 05:30:35;;;;;;;3.67;1.05;;;;;;;;;;4776811;29;20422;-74
2021/01/24 05:33:01;;;;;;;2.35;0.93;;;;;;;;;;4777645;29;20048;-75
2021/01/24 05:35:28;;;;;;;2.17;1.23;;;;;;;;;;4777752;30;20506;-76
2021/01/24 05:37:54;;;;;;;3.03;1.48;;;;;;;;;;4782649;29;20130;-75
2021/01/24 05:40:20;;;;;;;3.85;1.55;;;;;;;;;;4801249;29;20058;-74
2021/01/24 05:42:47;;;;;;;3.75;1.30;;;;;;;;;;4778684;29;20055;-74
2021/01/24 05:45:14;;;;;;;3.67;1.30;;;;;;;;;;4798894;29;20057;-76
2021/01/24 05:47:42;;;;;;;3.78;1.58;;;;;;;;;;4795710;29;20058;-74
2021/01/24 05:50:12;;;;;;;3.33;1.25;;;;;;;;;;4797695;29;20058;-77
2021/01/24 05:52:40;;;;;;;2.95;1.27;;;;;;;;;;4809468;29;20062;-74
2021/01/24 05:55:09;;;;;;;3.03;1.08;;;;;;;;;;4814698;29;20056;-73
2021/01/24 05:57:40;;;;;;;2.67;1.10;;;;;;;;;;4815683;29;20477;-75
2021/01/24 06:00:06;;;;;;;3.03;1.10;;;;;;;;;;4815933;29;20046;-74
2021/01/24 06:02:33;;;;;;;4.30;1.60;;;;;;;;;;4812263;29;20054;-75
2021/01/24 06:05:00;;;;;;;1.75;0.82;;;;;;;;;;4816505;29;20054;-74
2021/01/24 06:07:26;;;;;;;2.88;1.52;;;;;;;;;;4804984;29;20050;-75
2021/01/24 06:09:52;;;;;;;3.03;1.08;;;;;;;;;;4795767;29;20069;-76
2021/01/24 06:12:22;;;;;;;2.78;1.15;;;;;;;;;;4817583;29;20754;-76
2021/01/24 06:14:49;;;;;;;3.58;1.17;;;;;;;;;;4809735;29;20065;-76
2021/01/24 06:17:27;;;;;;;1.88;0.93;;;;;;;;;;4813556;29;20051;-74
2021/01/24 06:19:56;;;;;;;3.08;1.00;;;;;;;;;;4816260;29;20054;-75
2021/01/24 06:22:23;;;;;;;2.15;0.90;;;;;;;;;;4815074;29;20141;-75
2021/01/24 06:24:55;;;;;;;3.97;1.25;;;;;;;;;;4815189;29;20046;-75
2021/01/24 06:27:24;;;;;;;1.60;1.02;;;;;;;;;;4804227;29;20060;-75
2021/01/24 06:29:51;;;;;;;3.40;1.38;;;;;;;;;;4809287;29;20055;-73
2021/01/24 06:32:27;;;;;;;2.72;1.30;;;;;;;;;;4811523;29;20054;-74
2021/01/24 06:34:54;;;;;;;2.13;1.00;;;;;;;;;;4815867;29;20061;-75
2021/01/24 06:37:25;;;;;;;3.45;0.88;;;;;;;;;;4812558;29;20055;-75
2021/01/24 06:39:52;;;;;;;3.17;0.82;;;;;;;;;;4810358;29;20504;-74
2021/01/24 06:42:37;;;;;;;2.47;1.20;;;;;;;;;;4814232;29;20050;-75
2021/01/24 06:45:04;;;;;;;7.97;1.27;;;;;;;;;;4815249;29;20497;-75
2021/01/24 06:47:38;;;;;;;3.33;1.67;;;;;;;;;;4818124;29;20050;-75
2021/01/24 06:50:25;;;;;;;1.38;0.80;;;;;;;;;;4810697;29;20047;-75
2021/01/24 06:53:10;;;;;;;2.83;1.25;;;;;;;;;;4813732;29;20065;-75
2021/01/24 06:55:37;;;;;;;2.40;1.10;;;;;;;;;;4812372;29;20385;-73
2021/01/24 06:58:22;;;;;;;3.53;1.00;;;;;;;;;;4815407;29;20515;-75
2021/01/24 07:00:49;;;;;;;2.85;1.13;;;;;;;;;;4812276;29;20165;-73
2021/01/24 07:03:21;;;;;;;1.90;0.82;;;;;;;;;;4809678;29;20055;-74
2021/01/24 07:05:47;;;;;;;3.13;1.25;;;;;;;;;;4809416;29;20054;-74
2021/01/24 07:08:30;;;;;;;2.85;1.48;;;;;;;;;;4815404;29;20047;-74
2021/01/24 07:10:57;;;;;;;2.75;1.10;;;;;;;;;;4812398;29;20417;-74
2021/01/24 07:13:26;;;;;;;2.20;0.90;;;;;;;;;;4798375;29;20051;-74
2021/01/24 07:15:53;;;;;;;4.70;1.25;;;;;;;;;;4817546;29;20530;-76
2021/01/24 07:18:20;;;;;;;2.15;1.25;;;;;;;;;;4813522;29;20398;-77
2021/01/24 07:20:51;;;;;;;3.80;1.17;;;;;;;;;;4809789;29;20050;-78
2021/01/24 07:23:17;;;;;;;3.38;0.90;;;;;;;;;;4810112;29;20462;-77
2021/01/24 07:25:44;;;;;;;3.00;1.10;;;;;;;;;;4812367;29;20059;-78
2021/01/24 07:28:12;;;;;;;2.85;0.95;;;;;;;;;;4810006;29;20050;-77
2021/01/24 07:30:39;;;;;;;2.55;1.23;;;;;;;;;;4797594;29;20145;-79
2021/01/24 07:33:08;;;;;;;1.83;1.00;;;;;;;;;;4817550;29;20051;-78
2021/01/24 07:35:35;;;;;;;3.35;1.00;;;;;;;;;;4816526;29;20047;-77
2021/01/24 07:38:02;;;;;;;2.40;1.10;;;;;;;;;;4811463;29;20155;-77
2021/01/24 07:40:29;;;;;;;1.88;1.02;;;;;;;;;;4819702;29;20507;-77
2021/01/24 07:42:55;;;;;;;5.15;1.17;;;;;;;;;;4813449;29;20057;-73
2021/01/24 07:45:22;;;;;;;2.90;1.38;;;;;;;;;;4818460;29;20085;-73
2021/01/24 07:47:48;;;;;;;2.35;1.08;;;;;;;;;;4814108;29;20412;-73
2021/01/24 07:50:15;;;;;;;2.42;1.05;;;;;;;;;;4811020;29;20412;-74
2021/01/24 07:52:41;;;;;;;3.28;1.13;;;;;;;;;;4814570;29;20050;-75
2021/01/24 07:55:08;;;;;;;3.20;1.67;;;;;;;;;;4819263;29;20054;-74
2021/01/24 07:57:35;;;;;;;2.90;1.10;;;;;;;;;;4817326;29;20114;-74
2021/01/24 08:00:03;;;;;;;5.00;0.95;;;;;;;;;;4815237;29;20047;-76
2021/01/24 08:02:30;;;;;;;5.57;1.80;;;;;;;;;;4812745;29;20081;-75
2021/01/24 08:04:59;;;;;;;7.15;1.50;;;;;;;;;;4815562;29;20171;-72
2021/01/24 08:07:27;;;;;;;3.00;1.23;;;;;;;;;;4819816;29;20042;-71
2021/01/24 08:09:53;;;;;;;3.58;1.08;;;;;;;;;;4813517;29;20497;-72
2021/01/24 08:12:21;;;;;;;2.25;1.27;;;;;;;;;;4814898;29;20052;-72
2021/01/24 08:14:48;;;;;;;3.65;1.27;;;;;;;;;;4816342;29;20576;-72
2021/01/24 08:17:20;;;;;;;6.40;1.58;;;;;;;;;;4815911;29;20047;-75
2021/01/24 08:19:47;;;;;;;5.45;1.70;;;;;;;;;;4815305;29;20051;-73
2021/01/24 08:22:13;;;;;;;2.67;1.38;;;;;;;;;;4797957;29;20054;-72
2021/01/24 08:24:40;;;;;;;2.92;1.40;;;;;;;;;;4815410;29;20053;-72
2021/01/24 08:27:07;;;;;;;2.25;1.10;;;;;;;;;;4819732;29;20062;-72
2021/01/24 08:29:39;;;;;;;3.80;1.95;;;;;;;;;;4801889;29;20411;-73
2021/01/24 08:32:05;;;;;;;3.67;1.02;;;;;;;;;;4815337;29;20058;-73
2021/01/24 08:34:36;;;;;;;2.10;1.15;;;;;;;;;;4815888;29;20408;-73
2021/01/24 08:37:04;;;;;;;4.00;1.30;;;;;;;;;;4811163;29;20058;-72
2021/01/24 08:39:31;;;;;;;4.93;1.63;;;;;;;;;;4801561;29;20126;-73
2021/01/24 08:41:57;;;;;;;6.82;2.15;;;;;;;;;;4817382;29;20078;-73
2021/01/24 08:44:23;;;;;;;3.42;1.30;;;;;;;;;;4814662;29;20583;-73
2021/01/24 08:46:51;;;;;;;1.63;1.00;;;;;;;;;;4816404;29;20050;-72
2021/01/24 08:49:24;;;;;;;1.45;0.95;;;;;;;;;;4815135;29;20069;-72
2021/01/24 08:51:50;;;;;;;3.50;1.20;;;;;;;;;;4812561;29;20054;-72
2021/01/24 08:54:26;;;;;;;4.22;1.00;;;;;;;;;;4800372;29;20051;-72
2021/01/24 08:57:09;;;;;;;3.25;1.20;;;;;;;;;;4814720;29;20056;-73
2021/01/24 09:00:05;;;;;;;3.00;1.20;;;;;;;;;;4811670;29;20057;-72
2021/01/24 09:02:32;;;;;;;4.18;1.55;;;;;;;;;;4806315;29;20058;-73
2021/01/24 09:05:00;;;;;;;4.63;1.27;;;;;;;;;;4810839;29;20046;-72
2021/01/24 09:07:36;;;;;;;4.15;1.20;;;;;;;;;;4810645;29;20050;-71
2021/01/24 09:10:17;;;;;;;2.90;1.33;;;;;;;;;;4816394;29;20508;-72
2021/01/24 09:12:46;;;;;;;3.47;0.77;;;;;;;;;;4813243;29;20212;-73
2021/01/24 09:15:13;;;;;;;3.58;1.45;;;;;;;;;;4814278;29;20054;-72
2021/01/24 09:17:39;;;;;;;3.00;1.33;;;;;;;;;;4812015;29;20054;-71
2021/01/24 09:20:08;;;;;;;3.80;1.25;;;;;;;;;;4817190;29;20054;-71
2021/01/24 09:22:35;;;;;;;2.60;0.82;;;;;;;;;;4813630;29;20057;-71
2021/01/24 09:25:04;;;;;;;1.92;1.00;;;;;;;;;;4814009;29;20066;-72
2021/01/24 09:27:31;;;;;;;3.65;1.00;;;;;;;;;;4815506;29;20219;-72
2021/01/24 09:29:57;;;;;;;4.03;1.05;;;;;;;;;;4810906;29;20070;-72
2021/01/24 09:32:25;;;;;;;2.85;0.98;;;;;;;;;;4813486;29;20055;-71
2021/01/24 09:34:54;;;;;;;2.40;1.08;;;;;;;;;;4812546;29;20139;-71
2021/01/24 09:37:20;;;;;;;2.00;0.82;;;;;;;;;;4814966;29;20411;-72
2021/01/24 09:39:46;;;;;;;7.40;1.80;;;;;;;;;;4818851;29;20056;-72
2021/01/24 09:42:12;;;;;;;4.45;1.48;;;;;;;;;;4815468;29;20084;-73
2021/01/24 09:44:38;;;;;;;5.95;1.40;;;;;;;;;;4814569;29;20398;-71
2021/01/24 09:47:04;;;;;;;3.85;1.65;;;;;;;;;;4811449;29;20411;-71
2021/01/24 09:49:31;;;;;;;6.63;1.80;;;;;;;;;;4813399;29;20069;-72
2021/01/24 09:51:57;;;;;;;6.75;2.13;;;;;;;;;;4812843;29;20053;-71
2021/01/24 09:54:23;;;;;;;4.53;1.35;;;;;;;;;;4811358;29;20051;-71
2021/01/24 09:56:51;;;;;;;3.42;1.50;;;;;;;;;;4809421;29;20790;-72
2021/01/24 09:59:17;;;;;;;3.03;1.50;;;;;;;;;;4813797;29;20452;-73
2021/01/24 10:01:44;;;;;;;4.53;1.50;;;;;;;;;;4814150;29;20073;-73
2021/01/24 10:04:11;;;;;;;4.72;1.58;;;;;;;;;;4811182;29;20047;-72
2021/01/24 10:06:41;;;;;;;2.33;1.30;;;;;;;;;;4816444;29;20059;-71
2021/01/24 10:09:07;;;;;;;3.60;1.15;;;;;;;;;;4818054;29;20500;-72
2021/01/24 10:11:33;;;;;;;4.07;1.48;;;;;;;;;;4812056;29;20455;-73
2021/01/24 10:13:59;;;;;;;3.03;1.50;;;;;;;;;;4805481;29;20054;-72
2021/01/24 10:16:30;;;;;;;4.35;1.60;;;;;;;;;;4817453;29;20051;-74
2021/01/24 10:18:56;;;;;;;2.28;1.10;;;;;;;;;;4814392;29;20191;-73
2021/01/24 10:21:23;;;;;;;3.30;1.05;;;;;;;;;;4815604;29;20050;-74
2021/01/24 10:23:49;;;;;;;2.65;1.40;;;;;;;;;;4816532;29;20923;-73
2021/01/24 10:26:18;;;;;;;6.75;1.30;;;;;;;;;;4814085;29;20058;-73
2021/01/24 10:28:44;;;;;;;2.30;1.10;;;;;;;;;;4813160;29;20058;-73
2021/01/24 10:31:10;;;;;;;1.67;1.05;;;;;;;;;;4811352;29;20446;-74
2021/01/24 10:33:36;;;;;;;3.15;1.70;;;;;;;;;;4814084;29;20054;-73
2021/01/24 10:36:04;;;;;;;3.85;1.40;;;;;;;;;;4813857;29;20416;-71
2021/01/24 10:38:31;;;;;;;2.78;1.65;;;;;;;;;;4814867;29;20050;-74
2021/01/24 10:40:59;;;;;;;4.45;1.30;;;;;;;;;;4814867;29;20142;-75
2021/01/24 10:43:26;;;;;;;3.50;1.73;;;;;;;;;;4815712;29;20047;-75
2021/01/24 10:45:52;;;;;;;3.72;1.48;;;;;;;;;;4810609;29;20103;-74
2021/01/24 10:48:18;;;;;;;5.00;2.00;;;;;;;;;;4807960;29;20055;-75
2021/01/24 10:50:45;;;;;;;5.57;1.90;;;;;;;;;;4807454;29;20055;-79
2021/01/24 10:53:11;;;;;;;6.05;1.70;;;;;;;;;;4818760;29;20077;-75
2021/01/24 10:55:38;;;;;;;7.03;1.70;;;;;;;;;;4823541;29;20497;-76
2021/01/24 10:58:04;;;;;;;5.40;2.47;;;;;;;;;;4813910;29;20133;-77
2021/01/24 11:00:30;;;;;;;5.63;2.10;;;;;;;;;;4809405;29;20054;-77
2021/01/24 11:02:57;;;;;;;7.40;2.15;;;;;;;;;;4816850;29;20544;-77
2021/01/24 11:05:23;;;;;;;6.82;2.42;;;;;;;;;;4811415;29;20055;-77
2021/01/24 11:07:50;;;;;;;14.55;3.00;;;;;;;;;;4812358;29;20547;-77
2021/01/24 11:10:17;;;;;;;4.60;2.10;;;;;;;;;;4810043;29;20598;-75
2021/01/24 11:12:43;;;;;;;6.05;2.47;;;;;;;;;;4804422;29;20055;-76
2021/01/24 11:15:09;;;;;;;12.25;3.67;;;;;;;;;;4811720;29;20051;-77
2021/01/24 11:17:37;;;;;;;5.03;2.28;;;;;;;;;;4812441;29;20627;-76
2021/01/24 11:20:07;;;;;;;6.15;2.03;;;;;;;;;;4812222;29;20054;-76
2021/01/24 11:22:33;;;;;;;10.00;2.03;;;;;;;;;;4817979;29;20062;-75
2021/01/24 11:25:00;;;;;;;10.80;2.55;;;;;;;;;;4816695;29;20042;-76
2021/01/24 11:27:28;;;;;;;13.60;2.90;;;;;;;;;;4824748;29;20110;-75
2021/01/24 11:29:54;;;;;;;12.10;2.67;;;;;;;;;;4815516;29;20051;-75
2021/01/24 11:32:22;;;;;;;12.15;2.58;;;;;;;;;;4815683;29;20046;-74
2021/01/24 11:35:05;;;;;;;11.80;2.97;;;;;;;;;;4815412;29;20054;-85
2021/01/24 11:37:32;;;;;;;7.82;2.40;;;;;;;;;;4817296;29;20420;-73
2021/01/24 11:40:01;;;;;;;5.63;2.42;;;;;;;;;;4815378;29;20592;-75
2021/01/24 11:42:27;;;;;;;7.88;2.30;;;;;;;;;;4816609;29;20058;-73
2021/01/24 11:44:53;;;;;;;5.65;2.53;;;;;;;;;;4818870;29;20150;-76
2021/01/24 11:47:21;;;;;;;6.55;2.35;;;;;;;;;;4815034;29;20195;-75
2021/01/24 11:49:50;;;;;;;6.65;2.50;;;;;;;;;;4813858;29;20623;-74
2021/01/24 11:52:16;;;;;;;14.02;2.95;;;;;;;;;;4813020;29;20067;-74
2021/01/24 11:54:42;;;;;;;10.63;3.42;;;;;;;;;;4810708;29;20552;-74
2021/01/24 11:57:08;;;;;;;6.63;2.67;;;;;;;;;;4817702;29;20058;-74
2021/01/24 11:59:34;;;;;;;4.95;2.50;;;;;;;;;;4815589;29;20158;-74
2021/01/24 12:02:01;;;;;;;8.60;2.42;;;;;;;;;;4812520;29;20514;-75
2021/01/24 12:04:27;;;;;;;7.57;3.42;;;;;;;;;;4817658;29;20054;-75
2021/01/24 12:06:53;;;;;;;5.82;2.65;;;;;;;;;;4815630;29;20073;-74
2021/01/24 12:09:19;;;;;;;4.50;2.60;;;;;;;;;;4815761;29;20068;-75
2021/01/24 12:11:48;;;;;;;4.85;3.03;;;;;;;;;;4814979;29;20054;-74
2021/01/24 12:14:14;;;;;;;8.23;2.90;;;;;;;;;;4816343;29;20050;-74
2021/01/24 12:16:40;;;;;;;6.47;2.88;;;;;;;;;;4812363;29;20144;-76
2021/01/24 12:19:09;;;;;;;10.00;3.42;;;;;;;;;;4814943;29;20077;-75
2021/01/24 12:21:35;;;;;;;10.43;3.80;;;;;;;;;;4813690;29;20054;-74
2021/01/24 12:24:03;;;;;;;7.60;4.10;;;;;;;;;;4814266;29;20050;-74
2021/01/24 12:26:30;;;;;;;9.38;4.55;;;;;;;;;;4817148;29;20074;-73
2021/01/24 12:28:56;;;;;;;9.90;4.85;;;;;;;;;;4813581;29;20973;-74
2021/01/24 12:31:22;;;;;;;10.88;4.30;;;;;;;;;;4814155;29;20208;-72
2021/01/24 12:33:48;;;;;;;10.80;4.22;;;;;;;;;;4800054;29;20062;-72
2021/01/24 12:36:14;;;;;;;9.07;4.57;;;;;;;;;;4812413;29;20177;-72
2021/01/24 12:38:40;;;;;;;9.10;3.67;;;;;;;;;;4816386;29;20053;-73
2021/01/24 12:41:08;;;;;;;7.75;4.07;;;;;;;;;;4818638;29;20046;-72
2021/01/24 12:43:34;;;;;;;14.10;5.43;;;;;;;;;;4812187;29;20058;-72
2021/01/24 12:46:02;;;;;;;12.52;6.50;;;;;;;;;;4817026;29;20417;-72
2021/01/24 12:48:28;;;;;;;18.90;8.93;;;;;;;;;;4815639;29;20042;-73
2021/01/24 12:50:55;;;;;;;15.60;7.93;;;;;;;;;;4816665;29;20099;-73
2021/01/24 12:53:21;;;;;;;13.73;7.00;;;;;;;;;;4819534;29;20125;-73
2021/01/24 12:55:48;;;;;;;16.15;7.72;;;;;;;;;;4813175;29;20058;-72
2021/01/24 12:58:14;;;;;;;14.30;6.55;;;;;;;;;;4815526;29;20140;-72
2021/01/24 13:00:40;;;;;;;15.60;7.78;;;;;;;;;;4814661;29;20078;-72
2021/01/24 13:03:06;;;;;;;18.00;7.93;;;;;;;;;;4814179;29;20095;-72
2021/01/24 13:05:33;;;;;;;18.65;8.73;;;;;;;;;;4813627;29;20133;-72
2021/01/24 13:08:04;;;;;;;18.80;7.80;;;;;;;;;;4815083;29;20046;-72
2021/01/24 13:10:32;;;;;;;21.27;7.63;;;;;;;;;;4809584;29;20051;-72
2021/01/24 13:12:59;;;;;;;15.50;8.77;;;;;;;;;;4812660;29;20058;-73
2021/01/24 13:15:25;;;;;;;17.60;7.47;;;;;;;;;;4816758;29;20431;-73
2021/01/24 13:17:51;;;;;;;11.60;7.40;;;;;;;;;;4813324;29;20066;-74
2021/01/24 13:20:17;;;;;;;12.45;7.28;;;;;;;;;;4815250;29;20050;-74
2021/01/24 13:22:43;;;;;;;14.02;7.07;;;;;;;;;;4813534;29;20050;-73
2021/01/24 13:25:10;;;;;;;21.45;8.68;;;;;;;;;;4812485;29;20050;-73
2021/01/24 13:27:36;;;;;;;14.25;7.03;;;;;;;;;;4814245;29;20050;-73
2021/01/24 13:30:03;;;;;;;15.77;8.07;;;;;;;;;;4815713;29;20526;-74
2021/01/24 13:32:29;;;;;;;16.67;7.28;;;;;;;;;;4814952;29;20054;-73
2021/01/24 13:34:55;;;;;;;16.45;7.20;;;;;;;;;;4813781;29;20050;-74
2021/01/24 13:37:21;;;;;;;17.85;7.75;;;;;;;;;;4816363;29;20102;-72
2021/01/24 13:39:50;;;;;;;17.60;6.40;;;;;;;;;;4812954;29;20523;-73
2021/01/24 13:42:16;;;;;;;14.10;6.65;;;;;;;;;;4812608;29;20512;-73
2021/01/24 13:44:42;;;;;;;15.85;7.97;;;;;;;;;;4815874;29;20065;-73
2021/01/24 13:47:08;;;;;;;16.70;6.45;;;;;;;;;;4816539;29;20141;-73
2021/01/24 13:49:35;;;;;;;14.35;5.85;;;;;;;;;;4809892;29;20076;-73
2021/01/24 13:52:01;;;;;;;17.77;6.97;;;;;;;;;;4815473;29;20530;-73
2021/01/24 13:54:27;;;;;;;14.27;7.95;;;;;;;;;;4814557;29;20057;-75
2021/01/24 13:56:53;;;;;;;11.38;6.03;;;;;;;;;;4813248;29;20489;-73
2021/01/24 13:59:19;;;;;;;10.10;5.47;;;;;;;;;;4815931;29;20046;-74
2021/01/24 14:01:45;;;;;;;13.90;6.85;;;;;;;;;;4817368;29;20058;-74
2021/01/24 14:04:11;;;;;;;12.00;7.07;;;;;;;;;;4816062;29;20050;-73
2021/01/24 14:06:37;;;;;;;15.40;7.57;;;;;;;;;;4815564;29;20397;-73
2021/01/24 14:09:04;;;;;;;15.20;7.32;;;;;;;;;;4815857;29;20042;-73
2021/01/24 14:11:30;;;;;;;16.70;6.82;;;;;;;;;;4815061;29;20504;-73
2021/01/24 14:13:56;;;;;;;17.73;8.25;;;;;;;;;;4813651;29;20052;-73
2021/01/24 14:16:22;;;;;;;14.75;7.38;;;;;;;;;;4812270;29;20054;-74
2021/01/24 14:18:50;;;;;;;15.60;8.25;;;;;;;;;;4812558;29;20042;-73
2021/01/24 14:21:17;;;;;;;16.95;7.65;;;;;;;;;;4815994;29;20062;-74
2021/01/24 14:23:43;;;;;;;20.30;7.60;;;;;;;;;;4813280;29;20061;-73
2021/01/24 14:26:09;;;;;;;17.50;8.43;;;;;;;;;;4813895;29;20149;-73
2021/01/24 14:28:36;;;;;;;19.20;8.13;;;;;;;;;;4815342;29;20050;-72
2021/01/24 14:31:02;;;;;;;17.15;8.95;;;;;;;;;;4810923;29;20062;-76
2021/01/24 14:33:29;;;;;;;17.92;7.45;;;;;;;;;;4812130;29;20050;-76
2021/01/24 14:35:55;;;;;;;17.73;7.85;;;;;;;;;;4807617;29;20110;-76
2021/01/24 14:38:21;;;;;;;14.90;7.63;;;;;;;;;;4815247;29;20050;-73
2021/01/24 14:40:47;;;;;;;19.60;8.45;;;;;;;;;;4795602;29;20432;-73
2021/01/24 14:43:14;;;;;;;15.27;7.07;;;;;;;;;;4812842;29;20051;-74
2021/01/24 14:45:41;;;;;;;22.02;8.25;;;;;;;;;;4813274;29;20050;-76